Time;durP1;ratioP1;P1;durP2;ratioP2;P2;SDS_P1;SDS_P2;PMS_P1;PMS_P2;Temp;Humidity;BMP_temperature;BMP_pressure;BME280_temperature;BME280_humidity;BME280_pressure;Samples;Min_cycle;Max_cycle;Signal;HPM_P1;HPM_P2
2021/12/28 00:00:35;;;;;;;57.60;23.90;;;;;;;-5.80;65.10;99908.17;24477;1356;3051174;-72
2021/12/28 00:03:04;;;;;;;58.00;22.80;;;;;;;-5.79;65.21;99913.80;24490;1360;3026299;-68
2021/12/28 00:05:33;;;;;;;58.40;24.90;;;;;;;-5.79;65.11;99913.48;24465;1357;3066333;-72
2021/12/28 00:08:02;;;;;;;51.60;24.70;;;;;;;-5.73;65.15;99908.95;24498;1357;3027049;-69
2021/12/28 00:10:32;;;;;;;57.00;23.50;;;;;;;-5.65;64.68;99904.42;24470;1362;3051591;-70
2021/12/28 00:13:01;;;;;;;60.10;22.50;;;;;;;-5.56;64.57;99895.84;24471;1355;3026422;-69
2021/12/28 00:15:34;;;;;;;63.00;24.40;;;;;;;-5.57;64.64;99886.09;24446;1360;3055199;-71
2021/12/28 00:18:08;;;;;;;57.60;22.80;;;;;;;-5.55;64.28;99883.73;24465;1360;3053097;-71
2021/12/28 00:20:48;;;;;;;52.60;21.80;;;;;;;-5.60;65.04;99876.48;24476;1360;3026554;-71
2021/12/28 00:23:19;;;;;;;56.40;22.60;;;;;;;-5.56;64.82;99878.44;24516;1355;3051921;-73
2021/12/28 00:25:49;;;;;;;59.50;23.70;;;;;;;-5.46;64.53;99879.22;24493;1355;3027057;-70
2021/12/28 00:28:20;;;;;;;54.20;23.20;;;;;;;-5.44;64.37;99880.27;24473;1360;3025426;-69
2021/12/28 00:30:51;;;;;;;61.20;24.70;;;;;;;-5.45;64.28;99874.27;24460;1355;3027340;-72
2021/12/28 00:33:22;;;;;;;58.40;21.80;;;;;;;-5.53;64.45;99873.52;24464;1357;3026587;-72
2021/12/28 00:35:51;;;;;;;63.50;23.40;;;;;;;-5.47;65.11;99871.01;24471;1363;3025545;-68
2021/12/28 00:38:22;;;;;;;52.90;21.20;;;;;;;-5.41;64.69;99863.21;24473;1355;3025745;-70
2021/12/28 00:40:53;;;;;;;64.10;21.90;;;;;;;-5.35;64.75;99861.23;24469;1360;3026461;-72
2021/12/28 00:43:22;;;;;;;50.10;20.90;;;;;;;-5.36;64.31;99856.61;24477;1356;3027072;-72
2021/12/28 00:45:51;;;;;;;63.00;23.70;;;;;;;-5.44;64.62;99853.96;24469;1360;3028335;-72
2021/12/28 00:48:20;;;;;;;60.30;21.90;;;;;;;-5.49;65.18;99851.19;24453;1362;3051459;-71
2021/12/28 00:50:49;;;;;;;55.70;22.80;;;;;;;-5.49;65.25;99851.52;24484;1362;3026548;-72
2021/12/28 00:53:18;;;;;;;65.20;22.70;;;;;;;-5.39;64.82;99846.50;24463;1360;3057792;-71
2021/12/28 00:55:48;;;;;;;63.20;23.50;;;;;;;-5.32;64.59;99841.95;24462;1360;3025436;-71
2021/12/28 00:58:17;;;;;;;56.80;21.90;;;;;;;-5.27;64.40;99834.67;24508;1356;3026875;-70
2021/12/28 01:00:46;;;;;;;51.20;21.30;;;;;;;-5.36;64.03;99839.71;24495;1356;3025212;-72
2021/12/28 01:03:15;;;;;;;59.10;21.70;;;;;;;-5.36;64.53;99839.70;24463;1351;3048196;-70
2021/12/28 01:05:44;;;;;;;53.70;21.90;;;;;;;-5.37;64.29;99826.72;24486;1356;3026840;-70
2021/12/28 01:08:13;;;;;;;45.80;20.20;;;;;;;-5.49;64.67;99826.94;24474;1360;3057004;-71
2021/12/28 01:10:50;;;;;;;53.30;19.90;;;;;;;-5.46;64.34;99822.70;24493;1357;3025003;-70
2021/12/28 01:13:19;;;;;;;46.70;20.50;;;;;;;-5.39;64.08;99814.91;24451;1363;3055039;-71
2021/12/28 01:15:49;;;;;;;54.20;19.90;;;;;;;-5.52;64.36;99809.65;24496;1355;3026324;-70
2021/12/28 01:18:18;;;;;;;54.80;20.40;;;;;;;-5.56;64.83;99804.33;24460;1355;3026292;-70
2021/12/28 01:20:47;;;;;;;52.90;21.40;;;;;;;-5.59;64.17;99803.29;24488;1358;3026146;-72
2021/12/28 01:23:17;;;;;;;50.10;20.50;;;;;;;-5.64;64.67;99806.64;24476;1359;3027000;-70
2021/12/28 01:25:46;;;;;;;46.20;19.90;;;;;;;-5.71;64.27;99799.57;24478;1360;3049503;-72
2021/12/28 01:28:15;;;;;;;53.50;21.20;;;;;;;-5.64;64.49;99802.20;24494;1358;3026565;-69
2021/12/28 01:30:44;;;;;;;52.70;20.60;;;;;;;-5.68;64.30;99799.10;24468;1358;3055088;-71
2021/12/28 01:33:13;;;;;;;47.30;19.60;;;;;;;-5.68;64.24;99803.35;24470;1360;3027050;-71
2021/12/28 01:35:42;;;;;;;48.40;18.80;;;;;;;-5.74;64.73;99804.48;24461;1359;3054785;-70
2021/12/28 01:38:12;;;;;;;60.30;20.70;;;;;;;-5.76;64.40;99809.93;24462;1360;3025439;-71
2021/12/28 01:40:41;;;;;;;53.80;21.80;;;;;;;-5.87;64.68;99806.23;24455;1360;3026764;-71
2021/12/28 01:43:16;;;;;;;59.50;22.10;;;;;;;-5.92;65.17;99811.64;24467;1359;3050868;-71
2021/12/28 01:45:48;;;;;;;48.70;21.60;;;;;;;-5.94;65.31;99810.75;24483;1356;3055313;-70
2021/12/28 01:48:24;;;;;;;47.10;20.20;;;;;;;-6.03;65.53;99818.50;24504;1360;3026847;-72
2021/12/28 01:50:55;;;;;;;46.70;20.60;;;;;;;-6.07;65.86;99818.81;24478;1355;3052565;-72
2021/12/28 01:53:24;;;;;;;44.50;18.50;;;;;;;-6.18;65.93;99814.06;24482;1351;3025064;-70
2021/12/28 01:55:56;;;;;;;42.70;17.20;;;;;;;-6.08;66.12;99809.08;24446;1361;3027851;-69
2021/12/28 01:58:25;;;;;;;48.00;19.30;;;;;;;-6.13;66.07;99812.08;24485;1357;3053490;-70
2021/12/28 02:00:55;;;;;;;45.90;20.10;;;;;;;-6.32;66.95;99813.73;24475;1355;3025185;-71
2021/12/28 02:03:24;;;;;;;27.80;12.20;;;;;;;-6.22;67.09;99815.05;24471;1358;3048235;-68
2021/12/28 02:05:53;;;;;;;44.10;17.70;;;;;;;-6.18;66.66;99818.51;24485;1357;3025885;-68
2021/12/28 02:08:22;;;;;;;45.00;18.00;;;;;;;-6.30;67.20;99815.80;24466;1357;3025053;-71
2021/12/28 02:10:55;;;;;;;43.60;19.00;;;;;;;-6.16;66.60;99815.96;24466;1360;3049639;-68
2021/12/28 02:13:25;;;;;;;45.80;18.80;;;;;;;-6.22;67.14;99820.67;24500;1354;3025636;-71
2021/12/28 02:15:54;;;;;;;39.20;16.80;;;;;;;-6.25;66.72;99822.85;24459;1354;3027026;-72
2021/12/28 02:18:24;;;;;;;40.30;19.20;;;;;;;-6.18;67.34;99825.48;24452;1358;3025897;-69
2021/12/28 02:20:53;;;;;;;34.50;16.00;;;;;;;-6.09;67.25;99823.55;24473;1359;3028013;-72
2021/12/28 02:23:23;;;;;;;38.20;16.50;;;;;;;-5.99;66.79;99822.30;24480;1359;3025463;-71
2021/12/28 02:25:53;;;;;;;40.30;16.90;;;;;;;-5.89;66.57;99820.19;24469;1361;3026676;-71
2021/12/28 02:28:22;;;;;;;34.20;16.30;;;;;;;-5.93;66.81;99822.86;24480;1359;3028706;-71
2021/12/28 02:30:53;;;;;;;39.40;16.80;;;;;;;-5.85;66.29;99822.45;24464;1355;3052773;-69
2021/12/28 02:33:26;;;;;;;39.00;16.20;;;;;;;-5.86;67.03;99825.86;24469;1360;3026424;-72
2021/12/28 02:36:01;;;;;;;44.20;16.20;;;;;;;-5.93;66.95;99824.24;24470;1356;3026818;-70
2021/12/28 02:38:30;;;;;;;43.70;17.30;;;;;;;-5.81;66.64;99824.55;24477;1355;3048949;-72
2021/12/28 02:40:59;;;;;;;31.90;15.40;;;;;;;-5.76;66.23;99819.15;24465;1355;3025495;-71
2021/12/28 02:43:29;;;;;;;44.10;16.40;;;;;;;-5.82;66.31;99814.80;24469;1356;3025601;-70
2021/12/28 02:46:02;;;;;;;34.10;14.00;;;;;;;-5.67;66.23;99811.90;24486;1359;3027127;-68
2021/12/28 02:48:32;;;;;;;36.90;16.30;;;;;;;-5.64;66.03;99807.33;24464;1360;3054270;-71
2021/12/28 02:51:10;;;;;;;39.50;16.40;;;;;;;-5.67;66.30;99806.09;24555;1360;3025234;-72
2021/12/28 02:53:39;;;;;;;39.90;17.50;;;;;;;-5.69;66.54;99805.04;24452;1361;3069903;-72
2021/12/28 02:56:10;;;;;;;36.50;15.80;;;;;;;-5.76;67.26;99806.17;24519;1358;3026474;-70
2021/12/28 02:58:41;;;;;;;41.30;16.70;;;;;;;-5.76;67.49;99807.38;24487;1359;3025580;-71
2021/12/28 03:01:20;;;;;;;32.10;16.10;;;;;;;-5.80;68.05;99805.11;24472;1360;3026534;-73
2021/12/28 03:03:52;;;;;;;39.50;17.10;;;;;;;-5.72;67.71;99807.07;24478;1362;3057935;-72
2021/12/28 03:06:22;;;;;;;37.60;15.90;;;;;;;-5.79;68.60;99806.30;24478;1360;3026400;-69
2021/12/28 03:08:53;;;;;;;40.50;15.00;;;;;;;-5.70;68.32;99806.40;24504;1360;3026827;-71
2021/12/28 03:11:25;;;;;;;37.90;15.90;;;;;;;-5.68;68.66;99810.70;24467;1360;3025988;-71
2021/12/28 03:13:55;;;;;;;33.90;14.20;;;;;;;-5.63;69.16;99808.70;24452;1360;3026756;-72
2021/12/28 03:16:25;;;;;;;35.80;15.60;;;;;;;-5.54;68.63;99807.42;24539;1360;3026867;-70
2021/12/28 03:18:54;;;;;;;40.40;17.40;;;;;;;-5.53;69.38;99798.90;24491;1360;3027146;-70
2021/12/28 03:21:23;;;;;;;35.40;16.40;;;;;;;-5.47;69.58;99798.61;24498;1360;3025133;-71
2021/12/28 03:23:52;;;;;;;36.60;15.60;;;;;;;-5.53;70.00;99788.98;24466;1360;3049150;-72
2021/12/28 03:26:23;;;;;;;41.50;18.70;;;;;;;-5.55;69.86;99788.47;24488;1363;3026628;-73
2021/12/28 03:28:52;;;;;;;36.30;16.50;;;;;;;-5.63;70.36;99783.27;24455;1355;3025914;-71
2021/12/28 03:31:21;;;;;;;37.70;16.30;;;;;;;-5.50;70.23;99781.18;24473;1358;3026880;-72
2021/12/28 03:33:53;;;;;;;38.00;16.60;;;;;;;-5.56;70.38;99771.91;24469;1360;3053438;-72
2021/12/28 03:36:24;;;;;;;31.30;15.90;;;;;;;-5.55;70.33;99765.09;24488;1357;3026138;-71
2021/12/28 03:38:53;;;;;;;34.50;14.40;;;;;;;-5.56;70.71;99761.32;24487;1360;3026320;-71
2021/12/28 03:41:23;;;;;;;36.40;15.60;;;;;;;-5.53;70.48;99756.22;24455;1360;3026356;-71
2021/12/28 03:43:53;;;;;;;35.10;14.60;;;;;;;-5.69;71.26;99753.67;24485;1356;3053072;-69
2021/12/28 03:46:24;;;;;;;29.50;12.20;;;;;;;-5.60;70.93;99748.64;24491;1355;3027633;-73
2021/12/28 03:48:53;;;;;;;30.10;13.90;;;;;;;-5.53;70.54;99743.41;24481;1357;3026425;-69
2021/12/28 03:51:22;;;;;;;35.30;14.60;;;;;;;-5.54;70.98;99737.96;24507;1351;3025596;-70
2021/12/28 03:53:51;;;;;;;28.70;13.10;;;;;;;-5.58;70.88;99734.66;24461;1355;3058795;-69
2021/12/28 03:56:20;;;;;;;31.00;12.70;;;;;;;-5.66;71.39;99732.38;24480;1360;3025094;-72
2021/12/28 03:58:50;;;;;;;28.30;13.20;;;;;;;-5.64;71.45;99735.81;24458;1358;3054708;-72
2021/12/28 04:01:21;;;;;;;28.90;13.40;;;;;;;-5.62;71.68;99741.13;24467;1358;3026324;-70
2021/12/28 04:03:50;;;;;;;28.50;13.30;;;;;;;-5.58;71.39;99737.06;24471;1359;3026389;-72
2021/12/28 04:06:21;;;;;;;33.40;13.80;;;;;;;-5.61;71.91;99737.20;23104;1358;8353606;-71
2021/12/28 04:08:50;;;;;;;30.70;14.20;;;;;;;-5.53;71.52;99740.36;24493;1355;3048026;-71
2021/12/28 04:11:39;;;;;;;35.70;13.60;;;;;;;-5.50;71.32;99736.95;24445;1360;3053781;-70
2021/12/28 04:14:08;;;;;;;30.50;12.50;;;;;;;-5.39;71.15;99740.48;24495;1355;3026149;-72
2021/12/28 04:16:37;;;;;;;32.10;13.90;;;;;;;-5.28;71.07;99735.42;24469;1360;3047823;-72
2021/12/28 04:19:06;;;;;;;34.10;14.80;;;;;;;-5.34;71.15;99734.19;24474;1360;3026842;-72
2021/12/28 04:21:35;;;;;;;27.90;12.40;;;;;;;-5.39;70.74;99733.46;24472;1357;3069489;-71
2021/12/28 04:24:05;;;;;;;36.10;14.30;;;;;;;-5.35;71.08;99725.48;24477;1355;3025029;-70
2021/12/28 04:26:35;;;;;;;35.40;14.50;;;;;;;-5.32;71.20;99721.23;24530;1360;3025285;-70
2021/12/28 04:29:04;;;;;;;32.00;13.30;;;;;;;-5.26;71.13;99715.46;24502;1360;3026528;-72
2021/12/28 04:31:34;;;;;;;31.50;13.40;;;;;;;-5.30;70.89;99715.43;24473;1359;3025164;-71
2021/12/28 04:34:04;;;;;;;29.40;11.60;;;;;;;-5.39;71.38;99714.84;24518;1357;3027518;-71
2021/12/28 04:36:34;;;;;;;32.60;15.10;;;;;;;-5.25;71.16;99712.74;24482;1360;3026569;-71
2021/12/28 04:39:04;;;;;;;29.60;13.70;;;;;;;-5.23;70.95;99713.62;24467;1357;3027146;-72
2021/12/28 04:41:40;;;;;;;28.80;12.40;;;;;;;-5.33;70.70;99708.92;24477;1354;3050140;-68
2021/12/28 04:44:12;;;;;;;33.40;15.70;;;;;;;-5.55;71.31;99705.17;24505;1354;3026848;-72
2021/12/28 04:46:41;;;;;;;36.70;14.60;;;;;;;-5.66;72.00;99702.69;24497;1354;3026495;-71
2021/12/28 04:49:10;;;;;;;32.90;13.50;;;;;;;-5.64;71.88;99700.48;24475;1355;3026897;-71
2021/12/28 04:51:40;;;;;;;31.80;14.90;;;;;;;-5.55;72.08;99692.36;24506;1363;3055703;-72
2021/12/28 04:54:12;;;;;;;38.50;14.10;;;;;;;-5.47;71.84;99689.35;24453;1357;3026675;-69
2021/12/28 04:56:42;;;;;;;40.70;15.70;;;;;;;-5.36;71.50;99686.19;24444;1363;3026826;-70
2021/12/28 04:59:11;;;;;;;30.70;12.90;;;;;;;-5.36;71.48;99682.45;24489;1357;3026928;-70
2021/12/28 05:01:39;;;;;;;37.30;13.80;;;;;;;-5.45;71.44;99681.52;24465;1362;3052001;-73
2021/12/28 05:04:09;;;;;;;32.90;13.30;;;;;;;-5.52;72.07;99677.54;24435;1360;3025423;-73
2021/12/28 05:06:38;;;;;;;29.70;13.60;;;;;;;-5.44;71.51;99671.13;24451;1363;3026713;-71
2021/12/28 05:09:09;;;;;;;34.40;14.00;;;;;;;-5.32;71.84;99667.27;24462;1355;3054040;-72
2021/12/28 05:11:38;;;;;;;37.90;13.80;;;;;;;-5.32;71.37;99659.59;24452;1363;3027376;-73
2021/12/28 05:14:08;;;;;;;28.50;13.20;;;;;;;-5.30;71.75;99659.77;24425;1361;3026663;-72
2021/12/28 05:16:38;;;;;;;30.20;14.10;;;;;;;-5.25;71.55;99655.70;24474;1356;3051269;-70
2021/12/28 05:19:07;;;;;;;40.70;13.80;;;;;;;-5.27;71.34;99656.37;24442;1359;3026299;-71
2021/12/28 05:21:36;;;;;;;40.00;15.50;;;;;;;-5.28;71.17;99657.23;24473;1357;3050885;-70
2021/12/28 05:24:05;;;;;;;35.20;15.10;;;;;;;-5.34;71.30;99655.48;24473;1355;3026955;-73
2021/12/28 05:26:34;;;;;;;35.20;15.40;;;;;;;-5.42;71.04;99653.88;24462;1356;3049719;-71
2021/12/28 05:29:03;;;;;;;39.60;14.60;;;;;;;-5.70;71.89;99642.41;24494;1357;3026610;-72
2021/12/28 05:31:32;;;;;;;32.60;15.10;;;;;;;-5.46;71.46;99638.66;24493;1357;3058437;-73
2021/12/28 05:34:02;;;;;;;32.90;13.10;;;;;;;-5.49;71.38;99641.88;24470;1360;3025086;-73
2021/12/28 05:36:33;;;;;;;36.00;15.60;;;;;;;-5.44;71.40;99642.94;24486;1363;3053445;-71
2021/12/28 05:39:03;;;;;;;31.70;13.30;;;;;;;-5.40;71.14;99641.95;24454;1357;3026766;-71
2021/12/28 05:41:32;;;;;;;31.40;14.50;;;;;;;-5.46;70.80;99639.85;24460;1356;3028049;-71
2021/12/28 05:44:01;;;;;;;34.20;15.00;;;;;;;-5.37;71.24;99645.54;24458;1357;3029249;-72
2021/12/28 05:46:30;;;;;;;35.40;14.30;;;;;;;-5.27;70.65;99634.52;24454;1359;3056842;-72
2021/12/28 05:48:59;;;;;;;37.50;14.30;;;;;;;-5.38;70.69;99637.52;24450;1355;3025313;-70
2021/12/28 05:51:28;;;;;;;32.20;13.60;;;;;;;-5.52;71.01;99632.98;24462;1355;3026892;-74
2021/12/28 05:53:57;;;;;;;38.10;14.70;;;;;;;-5.52;71.11;99631.77;24482;1357;3057015;-74
2021/12/28 05:56:26;;;;;;;38.90;15.40;;;;;;;-5.46;70.95;99632.34;24445;1357;3026664;-72
2021/12/28 05:58:55;;;;;;;31.40;14.40;;;;;;;-5.43;70.76;99639.20;24467;1355;3051988;-75
2021/12/28 06:01:24;;;;;;;35.30;15.50;;;;;;;-5.56;71.17;99636.70;24466;1357;3027053;-71
2021/12/28 06:03:52;;;;;;;36.90;14.90;;;;;;;-5.62;71.45;99635.64;24500;1355;3050717;-71
2021/12/28 06:06:21;;;;;;;34.10;15.50;;;;;;;-5.59;71.31;99639.58;24479;1359;3027072;-69
2021/12/28 06:08:52;;;;;;;36.70;15.70;;;;;;;-5.47;71.11;99635.23;24479;1363;3049615;-74
2021/12/28 06:11:21;;;;;;;35.70;14.60;;;;;;;-5.37;71.46;99639.75;24449;1358;3027022;-70
2021/12/28 06:13:50;;;;;;;32.90;14.50;;;;;;;-5.32;71.54;99636.19;24457;1360;3026600;-72
2021/12/28 06:16:19;;;;;;;32.40;14.20;;;;;;;-5.30;70.86;99629.72;24524;1357;3050976;-71
2021/12/28 06:18:48;;;;;;;34.20;13.60;;;;;;;-5.50;70.82;99627.35;24449;1363;3028719;-71
2021/12/28 06:21:17;;;;;;;32.80;12.80;;;;;;;-5.63;71.25;99625.90;24479;1357;3071023;-69
2021/12/28 06:23:47;;;;;;;35.90;14.50;;;;;;;-5.50;70.62;99620.88;24456;1356;3026322;-73
2021/12/28 06:26:16;;;;;;;29.50;12.40;;;;;;;-5.39;70.59;99622.15;24453;1360;3026989;-69
2021/12/28 06:28:45;;;;;;;33.60;15.10;;;;;;;-5.44;70.34;99612.89;24450;1363;3068337;-71
2021/12/28 06:31:14;;;;;;;36.50;13.70;;;;;;;-5.59;70.62;99612.28;24479;1356;3026087;-73
2021/12/28 06:33:43;;;;;;;36.80;16.20;;;;;;;-5.56;70.96;99608.54;24458;1356;3051453;-73
2021/12/28 06:36:12;;;;;;;38.50;15.70;;;;;;;-5.82;71.78;99612.11;24458;1354;3025508;-73
2021/12/28 06:38:41;;;;;;;31.70;14.20;;;;;;;-5.66;72.30;99613.23;24473;1357;3051397;-73
2021/12/28 06:41:10;;;;;;;38.00;15.70;;;;;;;-5.44;71.04;99611.70;24474;1359;3025792;-72
2021/12/28 06:43:39;;;;;;;35.50;13.50;;;;;;;-5.61;71.82;99606.80;24468;1357;3026288;-71
2021/12/28 06:46:08;;;;;;;35.70;14.50;;;;;;;-5.60;71.51;99604.59;24493;1357;3054509;-70
2021/12/28 06:48:38;;;;;;;35.80;16.00;;;;;;;-5.52;71.46;99599.53;24461;1357;3027031;-69
2021/12/28 06:51:07;;;;;;;40.50;16.70;;;;;;;-5.55;71.56;99590.11;24482;1357;3051426;-72
2021/12/28 06:53:36;;;;;;;42.10;16.00;;;;;;;-5.62;71.98;99588.36;24501;1357;3025098;-71
2021/12/28 06:56:05;;;;;;;47.60;17.70;;;;;;;-5.51;72.20;99584.50;24479;1355;3056689;-73
2021/12/28 06:58:36;;;;;;;38.80;17.40;;;;;;;-5.49;71.33;99577.35;24463;1360;3026362;-69
2021/12/28 07:01:05;;;;;;;38.40;15.90;;;;;;;-5.48;71.46;99579.05;24495;1359;3026773;-73
2021/12/28 07:03:35;;;;;;;42.10;16.80;;;;;;;-5.54;71.19;99576.80;24484;1355;3057029;-73
2021/12/28 07:06:06;;;;;;;33.40;13.30;;;;;;;-5.60;71.37;99570.11;24452;1358;3025965;-73
2021/12/28 07:08:36;;;;;;;42.00;16.80;;;;;;;-5.59;71.09;99571.15;24478;1359;3026549;-73
2021/12/28 07:11:06;;;;;;;35.70;15.50;;;;;;;-5.81;72.36;99568.77;24487;1357;3025200;-70
2021/12/28 07:13:35;;;;;;;41.30;16.00;;;;;;;-5.67;71.93;99563.07;24461;1360;3025955;-72
2021/12/28 07:16:04;;;;;;;38.80;14.90;;;;;;;-5.68;72.32;99561.53;24493;1359;3026028;-71
2021/12/28 07:18:33;;;;;;;37.90;16.20;;;;;;;-5.60;72.03;99552.52;24449;1357;3051754;-70
2021/12/28 07:21:03;;;;;;;38.60;14.30;;;;;;;-5.60;71.92;99551.67;24448;1357;3025614;-74
2021/12/28 07:23:32;;;;;;;36.50;15.30;;;;;;;-5.55;72.06;99546.41;24460;1360;3055031;-73
2021/12/28 07:26:01;;;;;;;43.10;15.80;;;;;;;-5.63;72.02;99543.30;24476;1357;3027663;-74
2021/12/28 07:28:32;;;;;;;38.70;15.80;;;;;;;-5.70;72.45;99540.69;24445;1357;3025504;-73
2021/12/28 07:31:01;;;;;;;37.70;15.30;;;;;;;-5.57;72.47;99538.21;24501;1357;3027019;-73
2021/12/28 07:33:29;;;;;;;44.10;15.70;;;;;;;-5.53;72.29;99540.29;24492;1360;3050684;-73
2021/12/28 07:35:59;;;;;;;34.40;14.50;;;;;;;-5.62;72.38;99543.98;24498;1357;3026731;-73
2021/12/28 07:38:28;;;;;;;43.20;16.30;;;;;;;-5.54;72.50;99541.14;24535;1359;3050509;-73
2021/12/28 07:41:08;;;;;;;47.20;16.40;;;;;;;-5.61;73.11;99533.75;24466;1357;3052778;-70
2021/12/28 07:43:38;;;;;;;38.30;14.50;;;;;;;-5.57;72.97;99530.18;24435;1357;3027200;-70
2021/12/28 07:46:07;;;;;;;39.80;16.10;;;;;;;-5.50;72.94;99528.52;24480;1357;3026296;-72
2021/12/28 07:48:36;;;;;;;35.20;14.70;;;;;;;-5.41;72.84;99521.91;24464;1361;3052116;-72
2021/12/28 07:51:05;;;;;;;39.30;15.70;;;;;;;-5.49;72.89;99508.55;24475;1357;3024840;-72
2021/12/28 07:53:34;;;;;;;34.50;14.70;;;;;;;-5.51;72.91;99509.06;24490;1357;3057244;-73
2021/12/28 07:56:04;;;;;;;38.90;15.00;;;;;;;-5.43;72.52;99508.76;24479;1356;3026533;-73
2021/12/28 07:58:33;;;;;;;46.10;16.00;;;;;;;-5.32;72.14;99511.53;24520;1357;3025856;-73
2021/12/28 08:01:06;;;;;;;43.60;16.20;;;;;;;-5.34;72.14;99510.33;24490;1360;3055197;-73
2021/12/28 08:03:36;;;;;;;40.20;14.50;;;;;;;-5.33;72.13;99509.83;24513;1360;3027603;-74
2021/12/28 08:06:05;;;;;;;31.30;13.70;;;;;;;-5.27;72.02;99500.79;24468;1357;3026672;-73
2021/12/28 08:08:35;;;;;;;36.00;13.70;;;;;;;-5.28;72.27;99493.27;24437;1358;3054102;-73
2021/12/28 08:11:03;;;;;;;31.20;11.90;;;;;;;-5.32;72.17;99482.00;24485;1355;3027566;-72
2021/12/28 08:13:32;;;;;;;43.40;14.60;;;;;;;-5.49;72.98;99483.64;24459;1357;3049456;-71
2021/12/28 08:16:01;;;;;;;32.80;12.30;;;;;;;-5.40;73.12;99498.02;24511;1358;3026464;-74
2021/12/28 08:18:31;;;;;;;34.60;13.50;;;;;;;-5.47;73.62;99500.70;24524;1360;3056386;-72
2021/12/28 08:21:00;;;;;;;25.60;11.40;;;;;;;-5.06;73.25;99495.75;24470;1357;3025685;-73
2021/12/28 08:23:29;;;;;;;26.20;10.00;;;;;;;-4.12;71.08;99488.33;24454;1363;3053685;-75
2021/12/28 08:25:58;;;;;;;30.70;11.70;;;;;;;-3.94;69.91;99475.15;24490;1357;3026467;-73
2021/12/28 08:28:29;;;;;;;35.10;12.50;;;;;;;-4.42;70.40;99469.70;24463;1357;3054231;-74
2021/12/28 08:30:58;;;;;;;30.40;11.60;;;;;;;-4.44;71.26;99464.23;24468;1357;3026947;-74
2021/12/28 08:33:28;;;;;;;30.20;11.80;;;;;;;-4.61;71.29;99459.77;24485;1357;3027979;-74
2021/12/28 08:35:57;;;;;;;29.70;10.70;;;;;;;-4.63;71.63;99453.11;24469;1357;3054234;-73
2021/12/28 08:38:25;;;;;;;26.60;11.60;;;;;;;-4.98;72.38;99440.23;24492;1357;3025148;-74
2021/12/28 08:40:56;;;;;;;31.20;11.60;;;;;;;-4.91;73.59;99447.27;24514;1357;3051322;-74
2021/12/28 08:43:25;;;;;;;26.20;11.10;;;;;;;-4.99;73.51;99439.39;24479;1363;3026561;-74
2021/12/28 08:45:54;;;;;;;31.40;11.90;;;;;;;-5.03;73.32;99431.52;24446;1358;3027238;-75
2021/12/28 08:48:24;;;;;;;31.30;11.10;;;;;;;-5.15;73.99;99417.33;24475;1358;3025644;-76
2021/12/28 08:50:53;;;;;;;30.80;11.80;;;;;;;-5.06;73.74;99407.44;24521;1351;3026288;-74
2021/12/28 08:53:22;;;;;;;29.70;11.60;;;;;;;-5.23;73.94;99402.96;24511;1358;3050895;-71
2021/12/28 08:55:51;;;;;;;28.20;11.50;;;;;;;-5.37;74.40;99381.08;24459;1358;3026516;-72
2021/12/28 08:58:20;;;;;;;25.00;10.30;;;;;;;-5.33;74.33;99378.35;24533;1359;3025986;-73
2021/12/28 09:00:52;;;;;;;24.60;10.10;;;;;;;-5.27;74.31;99378.36;24516;1355;3053432;-72
2021/12/28 09:03:20;;;;;;;26.70;10.40;;;;;;;-5.32;74.45;99365.70;24514;1358;3026545;-70
2021/12/28 09:05:50;;;;;;;29.20;10.70;;;;;;;-5.23;74.41;99362.65;24502;1357;3054614;-71
2021/12/28 09:08:20;;;;;;;31.00;10.50;;;;;;;-5.29;74.70;99352.91;24483;1357;3025871;-74
2021/12/28 09:10:49;;;;;;;31.30;10.50;;;;;;;-5.44;75.64;99346.39;24464;1358;3028898;-72
2021/12/28 09:13:18;;;;;;;29.30;10.30;;;;;;;-5.39;75.39;99340.10;24494;1355;3052737;-73
2021/12/28 09:15:54;;;;;;;18.10;7.10;;;;;;;-4.84;74.45;99336.70;24463;1357;3051162;-73
2021/12/28 09:18:39;;;;;;;17.10;7.90;;;;;;;-4.23;72.07;99332.36;24508;1359;3057755;-69
2021/12/28 09:21:08;;;;;;;22.30;8.70;;;;;;;-4.13;71.85;99336.09;24462;1355;3026770;-71
2021/12/28 09:23:38;;;;;;;20.60;8.20;;;;;;;-4.20;71.83;99335.75;24480;1355;3026313;-73
2021/12/28 09:26:07;;;;;;;21.80;8.20;;;;;;;-4.39;72.21;99331.02;24467;1355;3055444;-71
2021/12/28 09:28:36;;;;;;;18.90;8.50;;;;;;;-4.60;72.70;99336.70;24464;1361;3029027;-72
2021/12/28 09:31:05;;;;;;;20.60;9.30;;;;;;;-4.55;72.97;99327.80;24478;1361;3050382;-74
2021/12/28 09:33:35;;;;;;;19.60;8.50;;;;;;;-4.61;72.76;99328.66;24486;1353;3026688;-72
2021/12/28 09:36:07;;;;;;;21.80;9.20;;;;;;;-4.76;72.68;99319.45;24475;1354;3026855;-73
2021/12/28 09:38:36;;;;;;;23.10;8.40;;;;;;;-4.75;73.00;99318.94;24532;1358;3052387;-72
2021/12/28 09:41:05;;;;;;;18.50;7.60;;;;;;;-4.86;73.41;99314.86;24498;1360;3026007;-73
2021/12/28 09:43:34;;;;;;;22.70;8.60;;;;;;;-5.02;74.00;99309.21;24486;1355;3054831;-73
2021/12/28 09:46:03;;;;;;;23.00;8.30;;;;;;;-5.01;73.96;99303.23;24497;1357;3025916;-73
2021/12/28 09:48:32;;;;;;;20.40;8.60;;;;;;;-5.05;73.70;99310.23;24486;1361;3026076;-73
2021/12/28 09:51:01;;;;;;;21.10;8.50;;;;;;;-5.02;74.29;99328.86;24509;1355;3051690;-72
2021/12/28 09:53:30;;;;;;;17.40;7.90;;;;;;;-4.87;74.02;99332.96;24481;1358;3028746;-71
2021/12/28 09:55:59;;;;;;;20.00;8.30;;;;;;;-4.96;74.11;99339.29;24498;1355;3047576;-71
2021/12/28 09:58:28;;;;;;;18.80;7.40;;;;;;;-5.20;74.30;99339.10;24487;1355;3026359;-71
2021/12/28 10:00:57;;;;;;;22.60;8.10;;;;;;;-5.22;74.79;99331.75;24504;1359;3067781;-70
2021/12/28 10:03:25;;;;;;;30.00;9.60;;;;;;;-5.12;74.57;99330.56;24478;1361;3026603;-72
2021/12/28 10:05:54;;;;;;;22.10;9.40;;;;;;;-5.14;74.70;99317.75;24456;1357;3050945;-73
2021/12/28 10:08:24;;;;;;;27.50;9.40;;;;;;;-5.22;74.85;99310.73;24482;1357;3026619;-74
2021/12/28 10:10:57;;;;;;;18.90;7.40;;;;;;;-5.12;75.29;99297.76;24574;1355;3026002;-71
2021/12/28 10:13:29;;;;;;;22.10;8.40;;;;;;;-4.52;74.12;99279.75;24477;1358;3026108;-72
2021/12/28 10:15:58;;;;;;;16.50;6.30;;;;;;;-4.09;73.35;99263.34;24495;1355;3027106;-71
2021/12/28 10:18:27;;;;;;;14.70;6.90;;;;;;;-3.74;72.26;99255.83;24479;1357;3026399;-71
2021/12/28 10:20:58;;;;;;;16.60;6.90;;;;;;;-3.84;72.10;99257.76;24494;1357;3052135;-75
2021/12/28 10:23:29;;;;;;;18.70;7.40;;;;;;;-4.13;72.44;99259.27;24498;1360;3026741;-73
2021/12/28 10:26:00;;;;;;;15.00;7.10;;;;;;;-4.39;73.51;99266.39;24537;1359;3026364;-72
2021/12/28 10:28:31;;;;;;;18.40;7.70;;;;;;;-4.34;73.68;99276.11;24484;1357;3026171;-71
2021/12/28 10:31:05;;;;;;;18.80;7.70;;;;;;;-4.44;74.11;99274.77;24536;1357;3027346;-70
2021/12/28 10:33:36;;;;;;;;;;;;;;;-4.57;74.29;99290.02;24493;1356;3049739;-70
2021/12/28 10:36:07;;;;;;;13.80;6.40;;;;;;;-4.70;75.41;99296.88;24445;1357;3026539;-71
2021/12/28 10:38:38;;;;;;;16.10;6.90;;;;;;;-4.69;74.92;99262.02;24467;1361;3028441;-71
2021/12/28 10:41:10;;;;;;;10.20;4.80;;;;;;;-4.72;75.80;99236.21;24516;1357;3026808;-67
2021/12/28 10:43:43;;;;;;;14.80;5.80;;;;;;;-4.31;74.48;99236.43;24489;1360;3026120;-70
2021/12/28 10:47:03;;;;;;;20.80;6.60;;;;;;;-3.72;73.06;99221.38;23013;1357;3027560;-75
2021/12/28 10:50:23;;;;;;;15.60;6.40;;;;;;;-3.39;71.85;99224.09;19028;1357;3052087;-74
2021/12/28 10:53:23;;;;;;;14.50;5.90;;;;;;;-3.78;71.65;99214.59;24531;1360;3054318;-72
2021/12/28 10:55:57;;;;;;;15.40;5.80;;;;;;;-3.92;72.57;99200.48;24457;1360;3050087;-73
2021/12/28 10:58:35;;;;;;;13.50;5.70;;;;;;;-3.77;72.68;99190.11;24438;1364;3069702;-72
2021/12/28 11:01:12;;;;;;;15.80;6.30;;;;;;;-4.10;72.94;99185.17;24453;1350;3048362;-69
2021/12/28 11:03:42;;;;;;;17.10;6.50;;;;;;;-4.39;73.93;99191.15;24453;1356;3050734;-72
2021/12/28 11:06:20;;;;;;;15.90;6.40;;;;;;;-4.47;74.95;99187.59;24516;1361;3025614;-69
2021/12/28 11:08:53;;;;;;;14.10;6.40;;;;;;;-4.46;74.73;99174.41;24494;1356;3057192;-70
2021/12/28 11:11:24;;;;;;;18.70;7.80;;;;;;;-4.53;74.84;99164.36;24447;1351;3049459;-70
2021/12/28 11:14:01;;;;;;;17.40;7.70;;;;;;;-4.66;75.50;99166.80;24474;1359;3026311;-71
2021/12/28 11:16:31;;;;;;;15.60;6.90;;;;;;;-4.72;76.16;99146.48;24478;1357;3053443;-71
2021/12/28 11:19:27;;;;;;;13.80;6.50;;;;;;;-4.62;75.85;99134.83;24451;1357;3067304;-71